Time;durP1;ratioP1;P1;durP2;ratioP2;P2;SDS_P1;SDS_P2;PMS_P1;PMS_P2;Temp;Humidity;BMP_temperature;BMP_pressure;BME280_temperature;BME280_humidity;BME280_pressure;Samples;Min_cycle;Max_cycle;Signal;HPM_P1;HPM_P2
2023/06/13 00:00:31;;;;;;;10.00;5.13;;;;;;;17.20;44.06;101281.16;5042529;28;20024;-78
2023/06/13 00:02:58;;;;;;;7.88;4.90;;;;;;;17.13;44.45;101282.06;5048226;28;20029;-79
2023/06/13 00:05:23;;;;;;;6.47;5.30;;;;;;;17.05;44.65;101281.56;5040724;28;20783;-77
2023/06/13 00:07:49;;;;;;;5.20;4.60;;;;;;;16.93;44.89;101279.59;5050416;28;20129;-78
2023/06/13 00:10:15;;;;;;;5.18;4.57;;;;;;;16.83;44.93;101269.28;5034585;28;20026;-78
2023/06/13 00:12:41;;;;;;;5.47;4.60;;;;;;;16.76;45.39;101275.84;5042348;28;20116;-78
2023/06/13 00:15:06;;;;;;;7.53;4.90;;;;;;;16.74;45.38;101278.81;5049939;28;20166;-78
2023/06/13 00:17:32;;;;;;;8.43;4.80;;;;;;;16.76;45.76;101267.69;5049300;28;20028;-78
2023/06/13 00:20:01;;;;;;;8.40;4.90;;;;;;;16.66;45.82;101279.09;5051894;28;20032;-78
2023/06/13 00:22:28;;;;;;;7.38;5.10;;;;;;;16.64;45.86;101273.91;5042917;28;20294;-79
2023/06/13 00:24:53;;;;;;;5.68;4.90;;;;;;;16.62;45.92;101269.72;5046257;28;20116;-79
2023/06/13 00:27:19;;;;;;;6.32;4.95;;;;;;;16.60;46.09;101266.41;5049745;28;20036;-80
2023/06/13 00:29:44;;;;;;;7.38;5.18;;;;;;;16.51;46.12;101265.88;5050853;28;20455;-79
2023/06/13 00:32:10;;;;;;;6.28;5.40;;;;;;;16.56;46.30;101265.22;5047855;28;20033;-79
2023/06/13 00:34:37;;;;;;;6.05;4.95;;;;;;;16.48;46.61;101275.34;5043230;28;20021;-79
2023/06/13 00:37:02;;;;;;;6.65;5.60;;;;;;;16.39;46.70;101276.69;5047887;28;20524;-79
2023/06/13 00:39:28;;;;;;;8.45;5.40;;;;;;;16.32;46.89;101276.78;5046270;28;20075;-78
2023/06/13 00:41:53;;;;;;;5.82;4.93;;;;;;;16.28;46.90;101274.72;5049320;28;20029;-79
2023/06/13 00:44:18;;;;;;;7.78;5.03;;;;;;;16.19;47.23;101280.44;5047672;28;20044;-79
2023/06/13 00:46:44;;;;;;;7.45;5.03;;;;;;;16.15;47.64;101276.50;5046872;28;20024;-79
2023/06/13 00:49:10;;;;;;;6.25;4.95;;;;;;;16.13;47.63;101275.91;5028570;28;20085;-79
2023/06/13 00:51:36;;;;;;;5.63;4.93;;;;;;;16.08;48.01;101275.72;5050561;28;20358;-77
2023/06/13 00:54:02;;;;;;;6.43;4.97;;;;;;;16.02;47.76;101272.03;5027704;28;20198;-78
2023/06/13 00:56:28;;;;;;;5.50;4.97;;;;;;;15.98;47.82;101278.13;5014080;28;20107;-79
2023/06/13 00:58:56;;;;;;;8.70;5.15;;;;;;;15.94;48.06;101271.47;5047982;28;20040;-78
2023/06/13 01:01:22;;;;;;;6.70;5.50;;;;;;;15.96;48.42;101269.38;5045375;28;20025;-78
2023/06/13 01:03:48;;;;;;;7.57;6.07;;;;;;;15.86;48.88;101273.44;5010250;28;20029;-79
2023/06/13 01:06:14;;;;;;;7.20;5.30;;;;;;;15.80;48.86;101268.84;5041995;28;20084;-78
2023/06/13 01:08:40;;;;;;;6.25;4.90;;;;;;;15.71;48.79;101265.59;5039469;28;20029;-78
2023/06/13 01:11:25;;;;;;;6.70;5.30;;;;;;;15.64;49.32;101274.84;5009767;28;20022;-79
2023/06/13 01:14:01;;;;;;;5.63;5.05;;;;;;;15.60;49.18;101269.84;5044298;28;20115;-78
2023/06/13 01:16:43;;;;;;;7.55;5.30;;;;;;;15.52;49.23;101267.41;5023489;28;20112;-78
2023/06/13 01:19:11;;;;;;;6.22;5.18;;;;;;;15.51;49.29;101264.91;5019948;28;20033;-80
2023/06/13 01:21:37;;;;;;;6.88;5.43;;;;;;;15.45;49.82;101269.34;5030299;28;20044;-79
2023/06/13 01:24:05;;;;;;;8.50;6.10;;;;;;;15.40;49.96;101261.84;5024433;28;20092;-79
2023/06/13 01:26:43;;;;;;;7.18;5.88;;;;;;;15.45;49.84;101262.00;5043939;28;20025;-79
2023/06/13 01:29:08;;;;;;;9.07;5.50;;;;;;;15.41;49.76;101258.09;5026135;28;20116;-78
2023/06/13 01:33:59;;;;;;;7.13;5.47;;;;;;;15.31;50.19;101261.28;5097391;23;20063;-79
2023/06/13 01:36:25;;;;;;;6.25;5.32;;;;;;;15.27;50.41;101260.06;5012231;28;20408;-79
2023/06/13 01:38:50;;;;;;;7.68;5.30;;;;;;;15.19;50.96;101263.00;5040509;28;20090;-79
2023/06/13 01:41:18;;;;;;;9.38;5.50;;;;;;;15.07;51.70;101265.59;5026787;28;20027;-79
2023/06/13 01:43:44;;;;;;;9.07;5.28;;;;;;;14.97;51.94;101255.22;5047385;28;20457;-78
2023/06/13 01:46:15;;;;;;;5.85;4.95;;;;;;;14.88;52.02;101259.22;5042566;28;20044;-79
2023/06/13 01:49:19;;;;;;;13.23;5.60;;;;;;;14.80;52.47;101259.47;5042702;28;20047;-79
2023/06/13 01:51:50;;;;;;;6.85;5.75;;;;;;;14.72;52.45;101257.00;4999369;28;20071;-79
2023/06/13 01:54:19;;;;;;;5.57;5.07;;;;;;;14.68;52.31;101256.59;5043867;28;20025;-79
2023/06/13 01:56:44;;;;;;;6.18;5.57;;;;;;;14.67;52.54;101260.31;5007066;28;20291;-79
2023/06/13 01:59:11;;;;;;;6.90;5.57;;;;;;;14.62;52.48;101258.28;5015591;28;20024;-78
2023/06/13 02:01:41;;;;;;;9.02;5.75;;;;;;;14.65;52.49;101252.41;5028496;28;20033;-77
2023/06/13 02:04:07;;;;;;;7.25;5.45;;;;;;;14.62;52.34;101247.44;5041572;28;20036;-78
2023/06/13 02:06:58;;;;;;;7.68;5.63;;;;;;;14.57;52.45;101249.94;5029902;23;20053;-78
2023/06/13 02:09:38;;;;;;;9.50;5.88;;;;;;;14.60;52.77;101257.66;5009170;28;20033;-78
2023/06/13 02:12:19;;;;;;;6.97;5.95;;;;;;;14.64;52.38;101250.75;5007110;28;20025;-79
2023/06/13 02:14:45;;;;;;;8.20;6.05;;;;;;;14.65;52.17;101252.41;5011057;28;20044;-78
2023/06/13 02:17:12;;;;;;;8.48;6.50;;;;;;;14.73;52.21;101262.22;5012188;28;20029;-79
2023/06/13 02:19:37;;;;;;;9.20;6.43;;;;;;;14.72;52.27;101251.59;5005756;28;20025;-77
2023/06/13 02:22:03;;;;;;;8.60;6.15;;;;;;;14.75;52.10;101251.16;5008701;28;20803;-77
2023/06/13 02:24:28;;;;;;;11.10;6.43;;;;;;;14.74;52.02;101254.91;5004676;28;20026;-78
2023/06/13 02:26:53;;;;;;;6.80;5.60;;;;;;;14.75;51.89;101251.16;5013323;28;20490;-77
2023/06/13 02:29:20;;;;;;;8.25;6.43;;;;;;;14.79;51.56;101255.91;5010647;28;20029;-77
2023/06/13 02:31:45;;;;;;;7.60;6.05;;;;;;;14.83;51.75;101256.31;5013317;28;20045;-78
2023/06/13 02:34:11;;;;;;;7.15;6.28;;;;;;;14.85;51.34;101248.81;5019104;28;20366;-78
2023/06/13 02:36:36;;;;;;;8.45;6.00;;;;;;;14.84;51.53;101249.84;4994456;28;20044;-78
2023/06/13 02:39:02;;;;;;;7.70;6.20;;;;;;;14.87;51.62;101248.59;5012258;28;20029;-78
2023/06/13 02:41:28;;;;;;;6.88;6.10;;;;;;;14.80;51.56;101251.34;5032836;28;20021;-78
2023/06/13 02:43:53;;;;;;;7.78;6.05;;;;;;;14.80;51.45;101252.16;5026140;28;20033;-78
2023/06/13 02:46:19;;;;;;;7.25;5.97;;;;;;;14.78;51.70;101261.56;5015749;28;20032;-78
2023/06/13 02:48:47;;;;;;;10.20;6.43;;;;;;;14.78;51.70;101253.44;5000073;28;20458;-79
2023/06/13 02:51:13;;;;;;;7.43;5.57;;;;;;;14.81;51.42;101255.72;5008319;28;20034;-78
2023/06/13 02:53:38;;;;;;;6.72;6.03;;;;;;;14.83;51.45;101251.75;5005856;28;20048;-78
2023/06/13 02:56:04;;;;;;;7.13;5.68;;;;;;;14.80;51.44;101260.31;5007275;28;20029;-80
2023/06/13 02:58:29;;;;;;;7.88;5.53;;;;;;;14.76;51.87;101260.94;5010937;28;20072;-79
2023/06/13 03:00:55;;;;;;;7.35;6.35;;;;;;;14.74;51.89;101255.72;5005648;28;20470;-79
2023/06/13 03:03:23;;;;;;;7.25;6.22;;;;;;;14.77;51.84;101262.63;5006908;28;20030;-80
2023/06/13 03:05:56;;;;;;;8.23;6.38;;;;;;;14.78;51.57;101267.00;5014932;28;20053;-78
2023/06/13 03:08:22;;;;;;;7.53;6.07;;;;;;;14.76;52.11;101264.47;5028896;28;20088;-79
2023/06/13 03:10:49;;;;;;;8.95;5.80;;;;;;;14.70;51.99;101263.47;5030700;28;20033;-79
2023/06/13 03:13:16;;;;;;;9.65;6.22;;;;;;;14.67;52.16;101263.84;5035385;28;20029;-79
2023/06/13 03:15:41;;;;;;;9.77;6.00;;;;;;;14.67;52.00;101271.16;5031724;28;20029;-79
2023/06/13 03:18:07;;;;;;;9.20;6.60;;;;;;;14.66;52.26;101270.31;5029169;28;20026;-79
2023/06/13 03:20:33;;;;;;;7.18;6.18;;;;;;;14.66;52.13;101264.91;5030935;28;20024;-79
2023/06/13 03:22:58;;;;;;;10.55;6.45;;;;;;;14.67;51.74;101263.84;5031703;28;20030;-79
2023/06/13 03:25:24;;;;;;;8.10;6.78;;;;;;;14.70;51.62;101259.94;5036740;28;20052;-79
2023/06/13 03:27:49;;;;;;;9.10;6.10;;;;;;;14.73;51.62;101264.09;5030632;28;20060;-79
2023/06/13 03:30:15;;;;;;;9.73;6.45;;;;;;;14.69;51.68;101261.81;5039444;28;20469;-79
2023/06/13 03:32:40;;;;;;;8.27;6.28;;;;;;;14.71;51.69;101269.72;5033135;28;20030;-80
2023/06/13 03:35:06;;;;;;;8.60;6.50;;;;;;;14.78;51.42;101267.00;5023183;28;20549;-79
2023/06/13 03:37:32;;;;;;;7.97;6.47;;;;;;;14.77;51.52;101259.91;5031177;28;20132;-79
2023/06/13 03:39:57;;;;;;;9.90;6.47;;;;;;;14.76;51.29;101264.47;5038337;28;20033;-80
2023/06/13 03:42:23;;;;;;;7.40;6.03;;;;;;;14.76;51.42;101258.25;5010346;28;20034;-79
2023/06/13 03:44:48;;;;;;;6.88;5.88;;;;;;;14.74;51.64;101269.28;5031467;28;20045;-79
2023/06/13 03:47:14;;;;;;;11.00;6.32;;;;;;;14.74;51.62;101271.16;5037511;28;20035;-79
2023/06/13 03:49:40;;;;;;;6.25;5.60;;;;;;;14.71;51.92;101261.59;5031633;28;20032;-79
2023/06/13 03:52:05;;;;;;;8.75;5.93;;;;;;;14.72;51.71;101267.84;5031176;28;20033;-80
2023/06/13 03:54:31;;;;;;;11.20;6.43;;;;;;;14.75;51.58;101256.56;5036034;28;20017;-79
2023/06/13 03:56:56;;;;;;;8.98;6.53;;;;;;;14.79;51.60;101265.94;5028906;28;20044;-79
2023/06/13 03:59:22;;;;;;;7.78;6.40;;;;;;;14.81;51.91;101259.25;5036901;28;20102;-79
2023/06/13 04:01:47;;;;;;;9.18;6.30;;;;;;;14.84;51.59;101266.13;5028772;28;20041;-79
2023/06/13 04:04:13;;;;;;;9.10;6.30;;;;;;;14.90;51.47;101264.44;5030435;28;20521;-79
2023/06/13 04:06:38;;;;;;;9.27;6.57;;;;;;;14.92;51.64;101262.31;5029168;28;20516;-79
2023/06/13 04:09:05;;;;;;;9.75;5.93;;;;;;;14.93;51.44;101262.13;5027865;28;20025;-78
2023/06/13 04:11:31;;;;;;;6.88;6.10;;;;;;;14.98;51.42;101272.31;5031097;28;20028;-79
2023/06/13 04:13:57;;;;;;;10.15;6.35;;;;;;;15.01;51.45;101270.00;5037256;28;20433;-79
2023/06/13 04:16:22;;;;;;;7.63;6.07;;;;;;;15.09;51.20;101276.22;5027622;28;20060;-79
2023/06/13 04:18:47;;;;;;;9.10;6.78;;;;;;;15.10;51.57;101275.19;5035605;28;20030;-79
2023/06/13 04:21:14;;;;;;;7.95;6.60;;;;;;;15.14;51.39;101269.09;5041774;28;20039;-79
2023/06/13 04:23:39;;;;;;;7.82;6.60;;;;;;;15.23;51.22;101268.84;5025056;28;20025;-79
2023/06/13 04:26:05;;;;;;;9.45;6.63;;;;;;;15.32;51.13;101272.97;5015829;28;20029;-79
2023/06/13 04:28:35;;;;;;;9.38;6.22;;;;;;;15.45;50.79;101272.03;5032518;28;20128;-80
2023/06/13 04:31:03;;;;;;;9.32;6.35;;;;;;;15.59;50.41;101265.47;5026367;28;20029;-79
2023/06/13 04:33:29;;;;;;;9.57;6.72;;;;;;;15.87;50.01;101275.09;5013874;28;20065;-79
2023/06/13 04:36:03;;;;;;;9.80;6.80;;;;;;;16.58;47.79;101266.66;5033564;28;20497;-79
2023/06/13 04:38:29;;;;;;;8.60;6.18;;;;;;;17.53;45.87;101267.06;5043129;28;20432;-79
2023/06/13 04:40:54;;;;;;;8.43;6.20;;;;;;;18.41;43.83;101265.56;5035918;28;20063;-79
2023/06/13 04:43:21;;;;;;;8.05;6.22;;;;;;;19.19;42.10;101268.81;5014608;28;20025;-79
2023/06/13 04:45:48;;;;;;;9.27;6.57;;;;;;;19.80;40.82;101261.91;5028791;28;20090;-79
2023/06/13 04:48:15;;;;;;;7.57;6.70;;;;;;;19.95;40.40;101264.06;5018995;28;20048;-78
2023/06/13 04:50:44;;;;;;;7.40;6.22;;;;;;;20.39;39.49;101263.31;5034910;28;20029;-78
2023/06/13 04:53:11;;;;;;;8.05;6.80;;;;;;;20.63;38.53;101261.19;5033330;28;20499;-79
2023/06/13 04:55:39;;;;;;;9.82;6.45;;;;;;;20.92;38.24;101274.69;5041589;28;20037;-79
2023/06/13 04:58:06;;;;;;;7.80;6.45;;;;;;;20.99;37.82;101264.38;5019392;28;20041;-78
2023/06/13 05:00:33;;;;;;;8.88;6.28;;;;;;;21.42;37.25;101275.47;5030329;28;20045;-79
2023/06/13 05:03:00;;;;;;;8.25;6.20;;;;;;;21.87;36.60;101273.41;5036264;28;20045;-78
2023/06/13 05:05:25;;;;;;;7.75;6.20;;;;;;;21.88;36.35;101266.00;5028749;28;20060;-79
2023/06/13 05:07:55;;;;;;;7.90;6.32;;;;;;;22.26;35.84;101280.50;5030877;28;20548;-79
2023/06/13 05:10:22;;;;;;;7.72;6.68;;;;;;;22.41;35.13;101269.59;5032922;28;20021;-78
2023/06/13 05:12:48;;;;;;;8.55;6.25;;;;;;;22.72;34.77;101282.66;5028866;28;20033;-79
2023/06/13 05:15:13;;;;;;;6.43;5.80;;;;;;;22.71;34.77;101283.75;5028421;28;20029;-79
2023/06/13 05:17:38;;;;;;;6.82;6.07;;;;;;;22.26;36.05;101288.72;5029189;28;20377;-78
2023/06/13 05:20:05;;;;;;;7.00;6.30;;;;;;;22.37;35.83;101290.44;5029493;28;20025;-79
2023/06/13 05:22:32;;;;;;;7.80;6.65;;;;;;;22.21;36.31;101292.28;5028085;28;20128;-78
2023/06/13 05:24:59;;;;;;;8.95;6.65;;;;;;;21.95;36.73;101294.00;5019398;28;20416;-78
2023/06/13 05:27:26;;;;;;;9.88;6.47;;;;;;;22.76;35.55;101293.94;5029782;28;20194;-78
2023/06/13 05:29:51;;;;;;;7.93;6.70;;;;;;;23.43;34.14;101299.59;5028977;28;20025;-78
2023/06/13 05:32:16;;;;;;;8.05;6.65;;;;;;;23.27;34.46;101290.53;5031355;28;20041;-77
2023/06/13 05:34:43;;;;;;;12.23;7.40;;;;;;;23.51;34.34;101296.34;5030225;28;20025;-78
2023/06/13 05:37:10;;;;;;;9.15;7.43;;;;;;;23.62;34.42;101297.16;5028769;28;20447;-78
2023/06/13 05:39:37;;;;;;;10.00;6.68;;;;;;;24.21;33.05;101298.50;5038401;28;20070;-78
2023/06/13 05:42:03;;;;;;;11.13;6.90;;;;;;;23.70;33.72;101304.84;5030150;28;20033;-77
2023/06/13 05:44:28;;;;;;;6.93;6.22;;;;;;;23.76;34.28;101303.75;5037113;28;20037;-79
2023/06/13 05:46:54;;;;;;;9.48;6.53;;;;;;;23.87;33.74;101292.75;5032903;28;20065;-79
2023/06/13 05:49:19;;;;;;;8.82;5.88;;;;;;;24.46;32.90;101309.72;5035719;28;20022;-77
2023/06/13 05:51:44;;;;;;;8.68;6.95;;;;;;;23.60;33.90;101294.66;5029617;28;20471;-79
2023/06/13 05:54:10;;;;;;;9.07;6.45;;;;;;;24.84;32.08;101307.41;5039761;28;20022;-80
2023/06/13 05:56:36;;;;;;;7.53;6.43;;;;;;;24.86;31.90;101310.72;5030227;28;20035;-78
2023/06/13 05:59:01;;;;;;;7.35;5.97;;;;;;;24.77;31.98;101317.88;5029428;28;20033;-83
2023/06/13 06:01:29;;;;;;;9.55;6.05;;;;;;;24.62;32.10;101314.06;5030300;28;20150;-77
2023/06/13 06:03:54;;;;;;;7.75;6.13;;;;;;;24.87;32.39;101320.63;5014827;28;20199;-76
2023/06/13 06:06:20;;;;;;;7.72;5.60;;;;;;;25.07;31.69;101313.31;5031729;28;20060;-77
2023/06/13 06:08:45;;;;;;;5.95;5.43;;;;;;;25.36;31.18;101315.38;5039291;28;20029;-77
2023/06/13 06:11:11;;;;;;;6.60;5.90;;;;;;;25.38;31.77;101315.91;5034711;28;20055;-77
2023/06/13 06:13:36;;;;;;;7.00;5.75;;;;;;;25.00;31.45;101316.41;5037606;28;20021;-77
2023/06/13 06:16:01;;;;;;;13.05;6.20;;;;;;;25.68;30.79;101311.31;5027990;28;20087;-77
2023/06/13 06:18:27;;;;;;;7.65;5.65;;;;;;;26.12;30.34;101315.88;5033033;28;20017;-79
2023/06/13 06:20:52;;;;;;;8.85;5.78;;;;;;;26.32;30.10;101316.78;5035723;28;20365;-77
2023/06/13 06:23:17;;;;;;;16.05;5.72;;;;;;;26.13;30.32;101314.75;5032836;28;20056;-77
2023/06/13 06:25:43;;;;;;;6.43;5.03;;;;;;;26.51;29.89;101316.03;5038151;28;20029;-77
2023/06/13 06:28:09;;;;;;;9.50;5.75;;;;;;;26.53;30.21;101313.78;5029123;28;20021;-76
2023/06/13 06:30:35;;;;;;;6.22;5.30;;;;;;;26.08;30.46;101313.97;5030283;28;20082;-79
2023/06/13 06:33:00;;;;;;;6.55;5.40;;;;;;;26.80;29.97;101313.22;5029053;28;20116;-75
2023/06/13 06:35:26;;;;;;;5.70;5.20;;;;;;;27.45;28.72;101316.44;5025768;28;20041;-76
2023/06/13 06:37:51;;;;;;;5.78;5.13;;;;;;;27.85;28.21;101319.69;5028050;28;20026;-76
2023/06/13 06:40:17;;;;;;;7.63;4.90;;;;;;;27.81;28.34;101319.47;5029640;28;20037;-75
2023/06/13 06:42:42;;;;;;;5.00;4.53;;;;;;;27.84;28.53;101324.41;5032088;28;20025;-76
2023/06/13 06:45:12;;;;;;;9.07;5.20;;;;;;;28.11;27.82;101327.56;5028394;28;20030;-75
2023/06/13 06:47:38;;;;;;;6.25;4.93;;;;;;;29.09;26.89;101328.38;5022689;28;20064;-76
2023/06/13 06:50:04;;;;;;;5.20;4.35;;;;;;;29.91;25.68;101335.88;5032222;28;20396;-75
2023/06/13 06:52:30;;;;;;;5.90;4.75;;;;;;;29.41;26.35;101326.56;5037726;28;20116;-75
2023/06/13 06:54:55;;;;;;;8.38;4.40;;;;;;;29.16;26.38;101328.75;5034161;28;20056;-75
2023/06/13 06:57:21;;;;;;;5.10;4.20;;;;;;;29.61;25.46;101332.75;5032711;28;20025;-75
2023/06/13 06:59:46;;;;;;;6.55;4.13;;;;;;;29.56;26.09;101333.69;5033788;28;20040;-75
2023/06/13 07:02:11;;;;;;;5.38;4.60;;;;;;;28.70;27.14;101335.28;5038671;28;20063;-75
2023/06/13 07:04:37;;;;;;;4.93;4.40;;;;;;;28.68;26.69;101340.31;5030067;28;20038;-75
2023/06/13 07:07:02;;;;;;;5.45;4.32;;;;;;;29.35;25.81;101336.13;5037857;28;20378;-75
2023/06/13 07:09:28;;;;;;;5.13;4.60;;;;;;;29.16;25.25;101345.38;5031416;28;20025;-75
2023/06/13 07:11:57;;;;;;;4.60;4.15;;;;;;;29.51;25.54;101344.91;5033418;28;20060;-75
2023/06/13 07:14:24;;;;;;;8.63;4.30;;;;;;;29.80;25.07;101344.47;5029746;28;20022;-75
2023/06/13 07:16:49;;;;;;;6.35;4.68;;;;;;;30.40;24.49;101353.47;5035927;28;20249;-75
2023/06/13 07:19:15;;;;;;;5.45;4.10;;;;;;;30.22;24.48;101346.19;5034025;28;20642;-75
2023/06/13 07:21:41;;;;;;;4.95;4.45;;;;;;;30.16;24.58;101348.28;5032833;28;20032;-75
2023/06/13 07:24:06;;;;;;;6.35;4.00;;;;;;;30.20;24.90;101351.22;5037412;28;20038;-75
2023/06/13 07:26:35;;;;;;;5.28;3.90;;;;;;;31.02;24.13;101350.88;5033643;28;20026;-75
2023/06/13 07:29:00;;;;;;;6.68;4.05;;;;;;;30.62;23.85;101349.00;5029786;28;20314;-75
2023/06/13 07:31:28;;;;;;;6.03;4.10;;;;;;;30.63;23.99;101350.63;5035820;28;20087;-75
2023/06/13 07:33:54;;;;;;;6.88;3.90;;;;;;;30.95;24.08;101348.56;5034547;28;20036;-75
2023/06/13 07:36:19;;;;;;;5.95;4.32;;;;;;;31.28;24.01;101347.34;5020259;28;20049;-76
2023/06/13 07:38:45;;;;;;;6.85;4.05;;;;;;;31.04;23.71;101342.22;5025474;28;20032;-76
2023/06/13 07:41:10;;;;;;;6.32;4.07;;;;;;;30.54;24.05;101350.56;5031555;28;20033;-76
2023/06/13 07:43:35;;;;;;;6.03;4.30;;;;;;;31.90;23.03;101346.16;5027168;28;20428;-76
2023/06/13 07:46:01;;;;;;;6.68;3.70;;;;;;;32.94;21.05;101348.84;5031072;28;20033;-76
2023/06/13 07:48:26;;;;;;;13.13;4.43;;;;;;;32.47;21.36;101352.56;5026177;28;20086;-76
2023/06/13 07:50:52;;;;;;;4.68;3.70;;;;;;;32.38;20.66;101346.19;5033162;28;20030;-76
2023/06/13 07:53:17;;;;;;;6.22;3.95;;;;;;;30.80;22.05;101332.38;5031462;28;20159;-76
2023/06/13 07:55:46;;;;;;;5.90;4.00;;;;;;;31.88;21.48;101337.31;5036761;28;20033;-76
2023/06/13 07:58:12;;;;;;;4.80;3.65;;;;;;;31.99;21.19;101343.34;5035954;28;20034;-75
2023/06/13 08:00:38;;;;;;;4.47;4.07;;;;;;;31.43;21.15;101340.44;5035976;28;20045;-75
2023/06/13 08:03:03;;;;;;;6.22;3.92;;;;;;;31.06;21.63;101331.59;5031493;28;20040;-75
2023/06/13 08:05:28;;;;;;;4.50;3.67;;;;;;;31.30;21.00;101337.50;5039777;28;20138;-75
2023/06/13 08:07:54;;;;;;;4.80;4.30;;;;;;;31.22;21.01;101330.00;5033987;28;20045;-75
2023/06/13 08:10:19;;;;;;;6.72;4.10;;;;;;;30.93;21.87;101331.41;5030311;28;20017;-74
2023/06/13 08:12:45;;;;;;;4.75;4.03;;;;;;;31.89;20.85;101335.34;5034643;28;20037;-75
2023/06/13 08:15:10;;;;;;;8.38;3.78;;;;;;;30.94;21.36;101321.91;5035933;28;20475;-75
2023/06/13 08:17:37;;;;;;;6.13;3.90;;;;;;;31.20;20.29;101332.28;5034018;28;20036;-76
2023/06/13 08:20:04;;;;;;;4.63;4.22;;;;;;;31.72;19.96;101327.84;5035547;28;20212;-76
2023/06/13 08:22:32;;;;;;;5.93;3.83;;;;;;;31.23;20.42;101334.44;5037716;28;20643;-76
2023/06/13 08:24:57;;;;;;;7.60;4.28;;;;;;;31.71;19.90;101331.78;5035512;28;20063;-80
2023/06/13 08:27:24;;;;;;;4.78;4.25;;;;;;;31.51;20.12;101325.72;5015790;28;20456;-74
2023/06/13 08:29:50;;;;;;;5.97;4.30;;;;;;;31.88;19.37;101320.63;5028707;28;20033;-75
2023/06/13 08:32:15;;;;;;;5.05;4.15;;;;;;;32.31;18.61;101330.00;5029247;28;20462;-75
2023/06/13 08:34:41;;;;;;;6.28;3.85;;;;;;;31.96;19.43;101326.47;5029244;28;20039;-74
2023/06/13 08:37:06;;;;;;;4.25;3.90;;;;;;;32.14;19.71;101322.47;5037271;28;20014;-76
2023/06/13 08:39:31;;;;;;;5.72;3.90;;;;;;;33.22;19.06;101341.91;5036377;28;20354;-76
2023/06/13 08:41:57;;;;;;;6.88;4.13;;;;;;;32.40;18.71;101329.94;5029986;28;20049;-76
2023/06/13 08:44:22;;;;;;;6.07;3.85;;;;;;;32.87;18.21;101322.66;5031902;28;20025;-76
2023/06/13 08:46:47;;;;;;;8.32;4.72;;;;;;;31.75;18.83;101321.63;5033073;28;20029;-76
2023/06/13 08:49:13;;;;;;;6.47;4.18;;;;;;;32.68;18.93;101323.09;5036630;28;20052;-76
2023/06/13 08:51:38;;;;;;;4.95;3.72;;;;;;;32.71;18.98;101319.63;4995244;28;20318;-76
2023/06/13 08:54:04;;;;;;;6.90;4.05;;;;;;;33.77;18.25;101311.22;5037098;28;20021;-76
2023/06/13 08:56:38;;;;;;;5.93;4.35;;;;;;;33.82;17.39;101320.19;5035448;28;20033;-76
2023/06/13 08:59:30;;;;;;;6.95;4.35;;;;;;;33.47;18.10;101325.31;5034167;28;20353;-75
2023/06/13 09:01:56;;;;;;;4.65;3.83;;;;;;;33.68;17.96;101319.69;5034296;28;20069;-77
2023/06/13 09:04:23;;;;;;;5.25;3.70;;;;;;;33.90;18.02;101298.94;5036763;28;20029;-78
2023/06/13 09:06:49;;;;;;;5.72;4.10;;;;;;;33.38;17.89;101300.28;5009576;28;20057;-80
2023/06/13 09:09:16;;;;;;;5.30;3.97;;;;;;;33.58;17.72;101306.97;4996742;28;20030;-74
2023/06/13 09:11:41;;;;;;;6.28;4.38;;;;;;;33.00;17.76;101313.22;5015291;28;20017;-78
2023/06/13 09:14:07;;;;;;;6.32;4.38;;;;;;;31.89;19.54;101302.75;5016946;28;20555;-78
2023/06/13 09:16:32;;;;;;;5.07;3.80;;;;;;;32.51;18.13;101297.75;5033844;28;20033;-75
2023/06/13 09:18:58;;;;;;;5.03;3.92;;;;;;;32.40;19.16;101301.25;5028833;28;20022;-76
2023/06/13 09:21:23;;;;;;;6.53;3.95;;;;;;;33.49;18.32;101286.72;5037715;28;20041;-75
2023/06/13 09:23:48;;;;;;;5.20;4.10;;;;;;;33.37;18.07;101296.66;5035723;28;20029;-74
2023/06/13 09:26:15;;;;;;;6.72;3.85;;;;;;;33.68;17.71;101286.19;5030228;28;20037;-75
2023/06/13 09:28:43;;;;;;;6.63;4.15;;;;;;;33.97;16.61;101298.38;5017785;28;20533;-74
2023/06/13 09:31:09;;;;;;;5.45;4.15;;;;;;;34.01;16.59;101288.97;5034281;28;20491;-74
2023/06/13 09:33:35;;;;;;;7.30;4.53;;;;;;;33.84;17.10;101289.13;5029640;28;20030;-75
2023/06/13 09:36:01;;;;;;;5.03;3.70;;;;;;;33.52;16.67;101289.63;5036476;28;20357;-74
2023/06/13 09:38:26;;;;;;;4.72;4.10;;;;;;;33.31;17.25;101286.88;5029957;28;20516;-75
2023/06/13 09:40:55;;;;;;;5.72;4.40;;;;;;;33.38;17.67;101295.50;5033062;28;20032;-75
2023/06/13 09:43:23;;;;;;;5.03;4.05;;;;;;;33.08;17.09;101287.22;5031738;28;20025;-74
2023/06/13 09:45:50;;;;;;;4.35;3.95;;;;;;;33.30;16.97;101292.78;5034031;28;20507;-74
2023/06/13 09:48:16;;;;;;;4.90;3.95;;;;;;;32.96;17.23;101290.75;5029934;28;20639;-74
2023/06/13 09:50:42;;;;;;;6.00;4.38;;;;;;;32.62;17.86;101278.66;5013711;28;20083;-74
2023/06/13 09:53:08;;;;;;;4.90;4.43;;;;;;;32.72;17.56;101280.25;5031716;28;20029;-74
2023/06/13 09:55:33;;;;;;;7.90;4.03;;;;;;;32.89;18.14;101279.34;5029249;28;20118;-74
2023/06/13 09:57:59;;;;;;;4.85;3.83;;;;;;;33.15;17.49;101274.72;5029743;28;20037;-74
2023/06/13 10:00:24;;;;;;;5.10;4.20;;;;;;;33.33;16.66;101276.19;5038240;28;20029;-74
2023/06/13 10:02:50;;;;;;;6.43;4.72;;;;;;;33.83;16.22;101274.34;5011712;28;20036;-74
2023/06/13 10:05:16;;;;;;;4.55;4.10;;;;;;;33.63;16.21;101272.44;5032472;28;20045;-74
2023/06/13 10:07:41;;;;;;;4.72;4.20;;;;;;;34.44;16.09;101271.97;5026841;28;20025;-74
2023/06/13 10:10:07;;;;;;;7.85;4.40;;;;;;;34.13;16.28;101270.56;5033311;28;20032;-74
2023/06/13 10:12:33;;;;;;;5.68;4.28;;;;;;;34.82;15.56;101265.13;5013978;28;20104;-75
2023/06/13 10:15:00;;;;;;;5.30;3.90;;;;;;;34.18;15.75;101270.34;5009303;28;20570;-74
2023/06/13 10:17:28;;;;;;;5.05;4.25;;;;;;;34.09;16.09;101261.25;5028673;28;20513;-74
2023/06/13 10:19:56;;;;;;;5.15;4.10;;;;;;;33.69;16.08;101249.56;4993875;28;20025;-74
2023/06/13 10:22:22;;;;;;;12.00;4.28;;;;;;;33.68;16.09;101259.09;5007313;28;20470;-75
2023/06/13 10:24:48;;;;;;;5.50;4.10;;;;;;;32.27;17.15;101264.16;4999065;28;20107;-75
2023/06/13 10:27:14;;;;;;;5.13;4.30;;;;;;;32.89;16.40;101270.16;5003660;28;20029;-75
2023/06/13 10:29:48;;;;;;;4.20;3.83;;;;;;;32.85;15.76;101266.41;5029739;28;20082;-75
2023/06/13 10:32:17;;;;;;;6.40;4.20;;;;;;;32.99;16.41;101269.75;5004000;28;20108;-75
2023/06/13 10:34:45;;;;;;;7.03;4.20;;;;;;;32.83;16.77;101271.53;5030900;28;20059;-74
2023/06/13 10:37:38;;;;;;;5.15;4.20;;;;;;;33.72;16.30;101256.41;5028967;28;20102;-74
2023/06/13 10:40:25;;;;;;;10.88;4.78;;;;;;;34.82;15.33;101253.16;5006533;28;20022;-74
2023/06/13 10:43:06;;;;;;;6.05;4.38;;;;;;;34.61;15.17;101265.31;5007104;28;20037;-75
2023/06/13 10:45:31;;;;;;;4.55;4.10;;;;;;;33.69;16.55;101241.19;5033901;28;20088;-75
2023/06/13 10:48:04;;;;;;;6.03;4.38;;;;;;;33.38;16.41;101267.59;5011009;28;20388;-75
2023/06/13 10:50:31;;;;;;;5.80;4.05;;;;;;;32.92;16.76;101275.06;5025874;28;20029;-75
2023/06/13 10:52:56;;;;;;;4.90;4.10;;;;;;;33.16;16.09;101246.47;4994006;28;20033;-75
2023/06/13 10:55:25;;;;;;;5.93;4.13;;;;;;;33.67;16.12;101246.28;5005794;28;20465;-75
2023/06/13 10:57:56;;;;;;;4.72;4.32;;;;;;;34.01;16.23;101243.44;5027336;28;20500;-74
2023/06/13 11:00:33;;;;;;;10.38;4.28;;;;;;;33.35;17.38;101247.91;5031850;28;20053;-75
2023/06/13 11:03:05;;;;;;;4.35;3.95;;;;;;;34.34;16.09;101231.31;5031843;28;20029;-75
2023/06/13 11:05:33;;;;;;;4.75;4.22;;;;;;;33.79;16.53;101247.47;5014259;28;20068;-74
2023/06/13 11:08:01;;;;;;;5.63;4.20;;;;;;;33.33;17.00;101247.44;5003521;28;20642;-73
2023/06/13 11:10:26;;;;;;;7.85;4.22;;;;;;;32.39;17.79;101239.16;4988269;28;20113;-74
2023/06/13 11:12:53;;;;;;;7.63;4.40;;;;;;;32.43;18.15;101234.53;4982714;28;20496;-74
2023/06/13 11:15:27;;;;;;;5.57;4.18;;;;;;;32.06;18.52;101225.88;5003864;28;20406;-73
2023/06/13 11:18:01;;;;;;;5.00;4.32;;;;;;;31.80;18.54;101223.22;5007538;28;20385;-73
2023/06/13 11:20:27;;;;;;;6.97;4.22;;;;;;;32.10;18.17;101226.84;5008350;28;20037;-74
2023/06/13 11:22:52;;;;;;;6.57;3.90;;;;;;;33.16;18.03;101226.13;5007508;28;20028;-74
2023/06/13 11:25:18;;;;;;;7.47;4.45;;;;;;;32.23;18.62;101218.56;5006642;28;20076;-74